createdAt,value
2022-09-25T00:02:09.811Z,25.98
2022-09-25T00:04:37.140Z,19.33
2022-09-25T00:07:04.279Z,21.48
2022-09-25T00:09:31.476Z,17.98
2022-09-25T00:11:58.610Z,18.23
2022-09-25T00:14:25.737Z,17.73
2022-09-25T00:16:52.959Z,22.48
2022-09-25T00:19:41.243Z,22.60
2022-09-25T00:22:08.485Z,19.85
2022-09-25T00:24:35.727Z,23.08
2022-09-25T00:27:02.902Z,20.30
2022-09-25T00:29:30.910Z,23.65
2022-09-25T00:31:58.025Z,22.92
2022-09-25T00:34:25.285Z,25.83
2022-09-25T00:36:52.464Z,24.00
2022-09-25T00:39:19.606Z,24.15
2022-09-25T00:41:46.752Z,23.92
2022-09-25T00:44:32.688Z,28.08
2022-09-25T00:46:59.956Z,24.42
2022-09-25T00:49:27.412Z,22.40
2022-09-25T00:52:00.635Z,19.75
2022-09-25T00:54:30.122Z,19.80
2022-09-25T00:56:57.990Z,27.27
2022-09-25T00:59:29.960Z,22.38
2022-09-25T01:01:57.424Z,24.00
2022-09-25T01:04:25.220Z,20.90
2022-09-25T01:06:52.857Z,30.30
2022-09-25T01:09:20.038Z,22.35
2022-09-25T01:11:47.783Z,21.25
2022-09-25T01:14:17.213Z,20.08
2022-09-25T01:16:58.078Z,24.00
2022-09-25T01:19:44.048Z,31.70
2022-09-25T01:22:26.529Z,28.95
2022-09-25T01:25:11.987Z,27.15
2022-09-25T01:27:39.237Z,26.00
2022-09-25T01:30:06.447Z,24.45
2022-09-25T01:32:53.838Z,32.03
2022-09-25T01:35:37.540Z,28.75
2022-09-25T01:38:26.913Z,30.10
2022-09-25T01:40:54.108Z,18.27
2022-09-25T01:43:26.893Z,25.02
2022-09-25T01:48:23.831Z,21.30
2022-09-25T01:50:56.827Z,26.88
2022-09-25T01:53:27.852Z,24.17
2022-09-25T01:56:02.235Z,27.48
2022-09-25T01:58:39.503Z,22.25
2022-09-25T02:01:26.932Z,21.27
2022-09-25T02:04:04.316Z,27.25
2022-09-25T02:06:33.016Z,22.80
2022-09-25T02:09:29.701Z,23.58
2022-09-25T02:11:58.996Z,26.27
2022-09-25T02:14:46.576Z,22.15
2022-09-25T02:17:35.397Z,20.38
2022-09-25T02:20:21.308Z,21.08
2022-09-25T02:22:50.347Z,17.50
2022-09-25T02:25:21.387Z,16.35
2022-09-25T02:27:48.543Z,15.65
2022-09-25T02:30:16.301Z,14.65
2022-09-25T02:32:43.487Z,13.90
2022-09-25T02:35:10.660Z,12.85
2022-09-25T02:37:37.851Z,10.98
2022-09-25T02:40:05.377Z,14.55
2022-09-25T02:42:41.848Z,10.90
2022-09-25T02:45:27.840Z,11.50
2022-09-25T02:48:07.262Z,11.98
2022-09-25T02:50:52.434Z,10.45
2022-09-25T02:53:24.709Z,11.18
2022-09-25T02:56:06.588Z,11.85
2022-09-25T02:58:52.241Z,11.20
2022-09-25T03:01:21.143Z,11.30
2022-09-25T03:03:50.378Z,9.90
2022-09-25T03:06:17.964Z,8.48
2022-09-25T03:08:47.010Z,10.40
2022-09-25T03:11:15.818Z,9.50
2022-09-25T03:13:43.760Z,10.52
2022-09-25T03:16:20.190Z,11.57
2022-09-25T03:18:48.146Z,10.88
2022-09-25T03:21:15.347Z,10.70
2022-09-25T03:23:42.484Z,11.85
2022-09-25T03:26:09.682Z,13.38
2022-09-25T03:28:36.978Z,12.50
2022-09-25T03:31:08.290Z,14.27
2022-09-25T03:33:36.949Z,13.25
2022-09-25T03:36:04.095Z,15.60
2022-09-25T03:38:31.189Z,13.40
2022-09-25T03:40:58.391Z,15.10
2022-09-25T03:43:28.269Z,16.00
2022-09-25T03:45:55.732Z,22.80
2022-09-25T03:48:22.960Z,15.07
2022-09-25T03:50:50.474Z,15.20
2022-09-25T03:53:18.386Z,16.25
2022-09-25T03:55:49.485Z,15.85
2022-09-25T03:58:17.011Z,14.82
2022-09-25T04:00:45.874Z,15.23
2022-09-25T04:03:13.511Z,13.65
2022-09-25T04:05:41.380Z,17.73
2022-09-25T04:08:08.716Z,15.55
2022-09-25T04:10:40.228Z,10.50
2022-09-25T04:13:07.380Z,9.60
2022-09-25T04:15:34.693Z,13.50
2022-09-25T04:18:05.929Z,9.73
2022-09-25T04:20:33.726Z,9.60
2022-09-25T04:23:00.915Z,8.15
2022-09-25T04:25:28.379Z,9.45
2022-09-25T04:27:55.935Z,9.50
2022-09-25T04:30:26.969Z,9.80
2022-09-25T04:33:13.309Z,8.48
2022-09-25T04:35:41.357Z,8.35
2022-09-25T04:38:09.712Z,8.23
2022-09-25T04:40:37.279Z,7.32
2022-09-25T04:43:05.273Z,7.40
2022-09-25T04:45:34.093Z,8.75
2022-09-25T04:48:01.801Z,7.03
2022-09-25T04:50:29.602Z,7.63
2022-09-25T04:53:00.470Z,7.80
2022-09-25T04:55:28.095Z,7.82
2022-09-25T04:57:59.335Z,10.93
2022-09-25T05:00:28.911Z,8.07
2022-09-25T05:02:58.932Z,7.88
2022-09-25T05:05:28.094Z,8.27
2022-09-25T05:07:59.268Z,7.90
2022-09-25T05:10:27.737Z,10.10
2022-09-25T05:12:58.965Z,8.30
2022-09-25T05:15:26.565Z,8.75
2022-09-25T05:18:00.490Z,7.90
2022-09-25T05:20:27.736Z,10.10
2022-09-25T05:22:56.257Z,7.88
2022-09-25T05:25:25.339Z,8.60
2022-09-25T05:27:58.118Z,8.07
2022-09-25T05:30:25.760Z,8.32
2022-09-25T05:32:53.499Z,10.68
2022-09-25T05:35:21.774Z,8.75
2022-09-25T05:37:48.979Z,8.98
2022-09-25T05:40:16.332Z,8.27
2022-09-25T05:42:47.837Z,7.55
2022-09-25T05:45:15.399Z,10.05
2022-09-25T05:47:43.498Z,10.55
2022-09-25T05:50:13.276Z,10.15
2022-09-25T05:52:40.682Z,9.32
2022-09-25T05:55:08.511Z,8.57
2022-09-25T05:57:36.363Z,7.07
2022-09-25T06:03:44.294Z,9.52
2022-09-25T06:06:11.482Z,9.23
2022-09-25T06:08:38.654Z,7.70
2022-09-25T06:11:06.196Z,9.15
2022-09-25T06:13:34.860Z,9.25
2022-09-25T06:16:02.649Z,9.98
2022-09-25T06:18:29.871Z,8.98
2022-09-25T06:21:04.187Z,10.30
2022-09-25T06:23:31.506Z,8.50
2022-09-25T06:26:02.995Z,9.00
2022-09-25T06:28:30.973Z,8.90
2022-09-25T06:31:01.064Z,9.05
2022-09-25T06:33:28.247Z,9.25
2022-09-25T06:35:55.385Z,10.27
2022-09-25T06:38:22.684Z,10.95
2022-09-25T06:40:50.412Z,12.07
2022-09-25T06:43:17.629Z,10.43
2022-09-25T06:45:46.763Z,10.15
2022-09-25T06:48:15.692Z,10.27
2022-09-25T06:50:44.593Z,8.95
2022-09-25T06:53:12.033Z,11.70
2022-09-25T06:55:39.365Z,9.05
2022-09-25T06:58:08.300Z,10.05
2022-09-25T07:00:35.729Z,10.07
2022-09-25T07:03:21.509Z,9.82
2022-09-25T07:05:48.894Z,10.05
2022-09-25T07:08:18.098Z,9.57
2022-09-25T07:10:49.259Z,7.55
2022-09-25T07:13:17.456Z,9.38
2022-09-25T07:15:44.854Z,12.50
2022-09-25T07:18:12.010Z,11.35
2022-09-25T07:20:39.172Z,10.68
2022-09-25T07:23:06.355Z,11.68
2022-09-25T07:25:33.675Z,10.18
2022-09-25T07:28:01.011Z,15.98
2022-09-25T07:30:29.549Z,11.32
2022-09-25T07:33:00.122Z,12.25
2022-09-25T07:35:27.472Z,11.27
2022-09-25T07:37:58.447Z,12.00
2022-09-25T07:40:29.357Z,11.57
2022-09-25T07:43:00.205Z,15.15
2022-09-25T07:45:27.605Z,14.93
2022-09-25T07:47:58.612Z,12.77
2022-09-25T07:50:25.819Z,13.73
2022-09-25T07:52:53.621Z,13.88
2022-09-25T07:55:20.929Z,13.95
2022-09-25T07:57:49.041Z,12.32
2022-09-25T08:00:16.212Z,13.80
2022-09-25T08:02:43.437Z,11.20
2022-09-25T08:05:11.748Z,12.63
2022-09-25T08:07:38.968Z,12.23
2022-09-25T08:10:06.610Z,12.50
2022-09-25T08:12:33.724Z,12.43
2022-09-25T08:15:00.842Z,9.10
2022-09-25T08:17:31.194Z,11.07
2022-09-25T08:19:58.362Z,10.35
2022-09-25T08:22:25.642Z,9.63
2022-09-25T08:24:52.828Z,9.80
2022-09-25T08:27:20.083Z,9.20
2022-09-25T08:29:47.239Z,10.00
2022-09-25T08:32:14.431Z,10.10
2022-09-25T08:34:42.492Z,9.75
2022-09-25T08:37:10.558Z,9.30
2022-09-25T08:39:37.772Z,8.85
2022-09-25T08:42:05.538Z,9.00
2022-09-25T08:44:32.691Z,8.68
2022-09-25T14:57:40.731Z,7.50
2022-09-25T15:00:19.675Z,9.00
2022-09-25T15:03:21.645Z,6.03
2022-09-25T15:05:59.173Z,7.10
2022-09-25T15:08:39.682Z,7.13
2022-09-25T15:11:41.418Z,8.90
2022-09-25T15:14:20.011Z,7.40
2022-09-25T15:41:23.185Z,7.47
2022-09-25T15:48:05.162Z,5.65
2022-09-25T15:51:01.224Z,4.35
2022-09-25T15:53:50.464Z,4.47
2022-09-25T15:56:36.125Z,4.85
2022-09-25T16:02:21.763Z,4.13
2022-09-25T16:05:12.687Z,5.53
2022-09-25T16:08:01.234Z,9.02
2022-09-25T16:10:33.301Z,5.70
2022-09-25T16:16:11.915Z,6.38
2022-09-25T16:19:09.250Z,16.48
2022-09-25T16:21:49.944Z,9.98
2022-09-25T16:24:33.959Z,8.30
2022-09-25T16:27:18.525Z,5.30
2022-09-25T16:29:52.913Z,3.72
2022-09-25T16:32:34.436Z,6.43
2022-09-25T16:35:11.072Z,6.88
2022-09-25T16:44:00.259Z,7.72
2022-09-25T16:46:26.593Z,7.55
2022-09-25T16:49:12.966Z,7.80
2022-09-25T16:51:48.681Z,7.25
2022-09-25T16:54:25.255Z,7.32
2022-09-25T16:57:08.828Z,7.10
2022-09-25T16:59:41.738Z,6.90
2022-09-25T17:02:28.558Z,8.70
2022-09-25T17:05:03.265Z,6.50
2022-09-25T17:07:37.059Z,7.35
2022-09-25T17:10:11.835Z,14.10
2022-09-25T17:12:54.255Z,11.07
2022-09-25T17:15:38.394Z,7.20
2022-09-25T17:18:26.558Z,8.20
2022-09-25T17:21:02.616Z,12.13
2022-09-25T17:23:45.182Z,9.55
2022-09-25T17:30:06.705Z,10.60
2022-09-25T17:47:58.004Z,13.20
2022-09-25T17:50:53.217Z,9.90
2022-09-25T17:53:43.804Z,14.65
2022-09-25T17:56:25.632Z,11.70
2022-09-25T17:59:14.528Z,11.23
2022-09-25T18:02:12.108Z,12.25
2022-09-25T18:05:25.177Z,13.23
2022-09-25T18:24:18.269Z,13.20
2022-09-25T18:26:45.750Z,9.05
2022-09-25T18:29:16.951Z,11.43
2022-09-25T18:31:44.614Z,9.10
2022-09-25T18:34:11.778Z,9.65
2022-09-25T18:36:38.985Z,10.95
2022-09-25T18:41:38.352Z,10.88
2022-09-25T18:44:09.227Z,14.27
2022-09-25T18:46:39.889Z,12.00
2022-09-25T18:49:07.570Z,11.23
2022-09-25T18:51:35.211Z,10.77
2022-09-25T18:54:04.681Z,9.40
2022-09-25T18:56:34.441Z,10.68
2022-09-25T18:59:04.357Z,10.82
2022-09-25T19:01:32.015Z,10.82
2022-09-25T19:03:59.226Z,5.93
2022-09-25T19:06:26.415Z,7.10
2022-09-25T19:08:54.591Z,8.55
2022-09-25T19:11:22.284Z,7.50
2022-09-25T19:13:50.041Z,10.43
2022-09-25T19:16:18.060Z,9.85
2022-09-25T19:18:48.179Z,8.40
2022-09-25T19:21:16.568Z,11.32
2022-09-25T19:23:44.526Z,12.05
2022-09-25T19:26:16.144Z,11.15
2022-09-25T19:28:46.020Z,9.60
2022-09-25T19:31:25.937Z,13.00
2022-09-25T19:33:53.687Z,13.10
2022-09-25T19:36:25.249Z,13.10
2022-09-25T19:38:52.876Z,11.48
2022-09-25T19:41:26.300Z,10.32
2022-09-25T19:43:54.486Z,9.77
2022-09-25T19:46:21.830Z,8.32
2022-09-25T19:48:49.321Z,7.20
2022-09-25T19:51:17.885Z,8.93
2022-09-25T19:53:46.112Z,12.85
2022-09-25T19:56:19.267Z,10.38
2022-09-25T19:58:50.807Z,8.45
2022-09-25T20:01:27.779Z,9.23
2022-09-25T20:03:56.611Z,11.32
2022-09-25T20:06:24.552Z,11.13
2022-09-25T20:08:56.910Z,9.35
2022-09-25T20:11:24.789Z,15.07
2022-09-25T20:13:52.794Z,12.40
2022-09-25T20:16:21.627Z,12.18
2022-09-25T20:18:50.155Z,14.80
2022-09-25T20:21:26.241Z,9.32
2022-09-25T20:23:54.295Z,14.68
2022-09-25T20:26:23.109Z,9.20
2022-09-25T20:28:58.184Z,9.45
2022-09-25T20:31:26.309Z,12.13
2022-09-25T20:33:54.170Z,10.68
2022-09-25T20:36:21.831Z,8.63
2022-09-25T20:38:52.969Z,9.93
2022-09-25T20:41:20.479Z,9.98
2022-09-25T20:43:51.659Z,11.45
2022-09-25T20:46:20.248Z,11.35
2022-09-25T20:48:48.588Z,11.70
2022-09-25T20:51:17.015Z,11.75
2022-09-25T20:53:45.331Z,12.63
2022-09-25T20:56:13.556Z,11.07
2022-09-25T20:58:42.247Z,11.95
2022-09-25T21:01:11.406Z,13.90
2022-09-25T21:03:39.741Z,8.55
2022-09-25T21:06:08.874Z,10.45
2022-09-25T21:08:36.490Z,12.05
2022-09-25T21:11:04.002Z,13.07
2022-09-25T21:13:32.484Z,10.75
2022-09-25T21:16:10.830Z,13.18
2022-09-25T21:18:40.611Z,10.75
2022-09-25T21:21:09.043Z,11.65
2022-09-25T21:23:36.858Z,11.55
2022-09-25T21:26:05.069Z,10.13
2022-09-25T21:28:32.619Z,12.02
2022-09-25T21:31:06.872Z,11.23
2022-09-25T21:33:34.445Z,14.23
2022-09-25T21:36:01.986Z,11.55
2022-09-25T21:38:29.478Z,11.98
2022-09-25T21:41:06.893Z,12.15
2022-09-25T21:43:37.388Z,13.07
2022-09-25T21:46:09.150Z,17.52
2022-09-25T21:48:37.283Z,15.65
2022-09-25T21:51:05.206Z,15.05
2022-09-25T21:53:33.815Z,13.43
2022-09-25T21:56:07.005Z,17.45
2022-09-25T21:58:34.671Z,15.43
2022-09-25T22:01:08.083Z,18.02
2022-09-25T22:03:36.113Z,15.13
2022-09-25T22:06:04.554Z,12.90
2022-09-25T22:08:32.735Z,12.88
2022-09-25T22:11:00.553Z,10.32
2022-09-25T22:13:28.898Z,14.85
2022-09-25T22:16:00.314Z,16.00
2022-09-25T22:18:27.696Z,14.82
2022-09-25T22:20:55.268Z,12.82
2022-09-25T22:23:23.838Z,13.50
2022-09-25T22:25:51.817Z,11.68
2022-09-25T22:28:20.034Z,14.15
2022-09-25T22:30:47.641Z,11.27
2022-09-25T22:33:15.313Z,11.15
2022-09-25T22:35:42.871Z,16.23
2022-09-25T22:38:10.041Z,13.52
2022-09-25T22:40:41.139Z,14.02
2022-09-25T22:43:08.366Z,14.70
2022-09-25T22:45:35.540Z,12.90
2022-09-25T22:48:02.762Z,14.93
2022-09-25T22:50:29.933Z,11.07
2022-09-25T22:52:58.530Z,17.33
2022-09-25T22:55:26.417Z,14.57
2022-09-25T22:57:53.580Z,24.55
2022-09-25T23:00:20.737Z,13.15
2022-09-25T23:02:48.156Z,14.50
2022-09-25T23:05:15.498Z,13.75
2022-09-25T23:07:43.015Z,13.88
2022-09-25T23:10:10.305Z,13.52
2022-09-25T23:12:37.433Z,20.42
2022-09-25T23:15:04.872Z,16.55
2022-09-25T23:17:32.086Z,17.15
2022-09-25T23:19:59.858Z,15.65
2022-09-25T23:22:27.646Z,19.55
2022-09-25T23:24:54.849Z,16.10
2022-09-25T23:27:21.965Z,21.65
2022-09-25T23:29:49.088Z,19.52
2022-09-25T23:32:16.369Z,14.30
2022-09-25T23:34:43.452Z,14.63
2022-09-25T23:37:10.639Z,16.88
2022-09-25T23:39:37.902Z,17.70
2022-09-25T23:42:05.082Z,16.85
2022-09-25T23:44:32.229Z,13.05
2022-09-25T23:46:59.628Z,17.27
2022-09-25T23:49:26.716Z,13.60
2022-09-25T23:51:54.348Z,14.43
2022-09-25T23:54:21.485Z,17.58
2022-09-25T23:56:48.670Z,14.82
2022-09-25T23:59:16.040Z,14.82
